Lima, Illinois
Current Conditions -  °F | °C
As of 6:54 PM on Friday 19 Dec 2014 (Local Time) from KUIN Reporting Station
Overcast Overcast  
Wind Chill: 26°   Ceiling: 4900
Heat Index: 32°   Visibility: 9mi
Dew Point: 25°   Wind: 6mph
Humidity: 75%   Direction: 130°SE
Pressure: 30.25"   Gusts: NA
Location:  40.18°N, 91.38°W
Report Text: KUIN 200054Z AUTO 13005KT 9SM OVC049 00/M04 A3025 RMK AO2 SLP252 T00001039
Loading
Personal Weather Stations






























Interactive Weather Map New forecast layout! Learn more

10-Day Weather Forecast

Advertisements
Track Severe Weather on mobile